San Esteban, Argentina
Current Conditions -  °F | °C
As of 10:00 AM on Thursday 27 Nov 2014 (Local Time) from SACO Reporting Station
Clear Clear  
Wind Chill: 26°   Ceiling: Unl
Heat Index: 26°   Visibility: 6mi
Dew Point: 13°   Wind: 20mph
Humidity: 44%   Direction: 20°NNE
Pressure: 30.09"   Gusts: NA
Location:  30.92°S, 64.55°W
Report Text: SACO 271300Z 02017KT CAVOK 26/13 Q1019
Loading
Personal Weather Stations






























Interactive Weather Map New forecast layout! Learn more

10-Day Weather Forecast

Advertisements
Track Severe Weather on mobile